Hlavní strana
METAR-TAF:

METAR-TAF

Letiště :

Jerez de la Frontera, Španělsko

zeměpisná šířka: 36-45N, zeměpisná délka: 006-04W, výška: 27 m

Aktuální stav počasí

Zpráva byla vytvořena před 29 minutami, v 19:30 UTC
vítr z různých směrů 2 kt
Teplota 13°C
Vlhkost vzduchu 77%
Tlak 1015 hPa
Viditelnost 10 km a více
Skoro jasno ve výšce 5000 ft

METAR: LEJR 051930Z VRB02KT 9999 FEW050 13/09 Q1015

Čas: 20:59 (19:59 UTC)

Předpověď počasí

Zpráva byla vytvořena před 2 hodinami a 59 minutami, v 17:00 UTC
Předpověď platná od 05 v 18 UTC do 06 v 18 UTC
Severovýchodní vítr 6 kt
Viditelnost 10 km a více
Skoro jasno ve výšce 4000 ft

TAF: LEJR 051700Z 0518/0618 04006KT 9999 FEW040 TX20/0615Z TN06/0607Z

Stav a předpovědi počasí z více než 4 000 letišť (zprávy METAR a TAF).

Červené a žluté tečky na mapě představují dostupné meteorologické stanice.

Když kurzor umístíte na tečku, zobrazí se název stanice.

Pak kliknutím zobrazíte stav a předpověď počasí.

Chcete-li změnit mapu, kliknutím na zelené tlačítko se znaménkem +mapu přiblížíte, kliknutím na zelené tlačítko se znaménkem – mapu oddálíte a kliknutím na zelené šipky přejdete na sousední mapy.


METAR-TAF: